Terminal Aerodrome Forecast
Issued by NWS Springfield, MO

Home | Current Version | Previous Version | Text Only | Print | Product List | Glossary On
Versions: 1 2 3 4 5 6 7 8 9 10 11 12 13 14 15
000
FTUS43 KSGF 041100
TAFSGF
TAF
KSGF 041133Z 0412/0512 17010KT P6SM SCT070 BKN120 OVC200
     FM041600 19013G20KT P6SM FEW050 SCT120 BKN250
     FM050000 17008KT P6SM SCT250=

USA.gov is the U.S. government's official web portal to all federal, state and local government web resources and services.